createdAt,value
2023-02-17T00:00:03.045Z,90.82
2023-02-17T00:05:02.788Z,91.22
2023-02-17T00:10:02.787Z,91.04
2023-02-17T00:15:03.556Z,91.11
2023-02-17T00:20:03.407Z,91.81
2023-02-17T00:25:03.158Z,89.55
2023-02-17T00:30:03.263Z,89.73
2023-02-17T00:35:02.587Z,91.99
2023-02-17T00:40:03.321Z,92.94
2023-02-17T00:45:03.193Z,93.13
2023-02-17T00:50:02.873Z,93.32
2023-02-17T00:55:03.286Z,93.43
2023-02-17T01:00:02.700Z,94.7
2023-02-17T01:05:03.563Z,94.33
2023-02-17T01:10:03.205Z,94.13
2023-02-17T01:15:03.612Z,93.54
2023-02-17T01:20:03.274Z,94.6
2023-02-17T01:25:03.623Z,95.09
2023-02-17T01:30:03.124Z,94.64
2023-02-17T01:35:03.025Z,94.83
2023-02-17T01:40:02.518Z,94.89
2023-02-17T01:45:03.360Z,93.61
2023-02-17T01:50:03.216Z,93.71
2023-02-17T01:55:03.460Z,91.82
2023-02-17T02:00:03.007Z,92.47
2023-02-17T02:05:02.884Z,91.87
2023-02-17T02:10:02.641Z,92.62
2023-02-17T02:15:03.039Z,95.8
2023-02-17T02:20:02.629Z,95.87
2023-02-17T02:25:03.532Z,96.01
2023-02-17T02:30:02.802Z,95.75
2023-02-17T02:35:03.086Z,94.96
2023-02-17T02:40:02.858Z,96.9
2023-02-17T02:45:02.618Z,99.25
2023-02-17T02:50:03.313Z,100
2023-02-17T02:55:03.141Z,100
2023-02-17T03:00:02.795Z,100
2023-02-17T03:05:02.818Z,100
2023-02-17T03:10:03.587Z,100
2023-02-17T03:15:03.337Z,100
2023-02-17T03:20:03.188Z,100
2023-02-17T03:25:02.967Z,100
2023-02-17T03:30:02.840Z,100
2023-02-17T03:35:03.315Z,100
2023-02-17T03:40:03.177Z,100
2023-02-17T03:45:02.938Z,100
2023-02-17T03:50:02.675Z,100
2023-02-17T03:55:04.143Z,100
2023-02-17T04:00:02.724Z,100
2023-02-17T04:05:03.334Z,100
2023-02-17T04:10:09.673Z,100
2023-02-17T04:15:03.515Z,100
2023-02-17T04:20:03.353Z,100
2023-02-17T04:25:03.006Z,100
2023-02-17T04:30:03.106Z,100
2023-02-17T04:35:02.805Z,100
2023-02-17T04:40:02.590Z,100
2023-02-17T04:45:03.122Z,100
2023-02-17T04:50:02.800Z,100
2023-02-17T04:55:03.089Z,100
2023-02-17T05:00:02.683Z,100
2023-02-17T05:05:03.646Z,100
2023-02-17T05:10:03.166Z,100
2023-02-17T05:15:03.103Z,99.68
2023-02-17T05:20:03.035Z,99.28
2023-02-17T05:25:03.069Z,99.02
2023-02-17T05:30:03.278Z,98.84
2023-02-17T05:35:02.851Z,98.6
2023-02-17T05:40:02.830Z,98.7
2023-02-17T05:45:03.525Z,97.32
2023-02-17T05:50:03.203Z,96.83
2023-02-17T05:55:03.703Z,96.98
2023-02-17T06:00:02.748Z,96.15
2023-02-17T06:05:04.283Z,96.9
2023-02-17T06:10:03.236Z,97.19
2023-02-17T06:15:03.281Z,96.05
2023-02-17T06:20:02.941Z,96.4
2023-02-17T06:25:02.782Z,95.73
2023-02-17T06:30:02.878Z,95.51
2023-02-17T06:35:03.423Z,95.67
2023-02-17T06:40:03.491Z,95.71
2023-02-17T06:45:02.847Z,95.32
2023-02-17T06:50:02.522Z,95.05
2023-02-17T06:55:04.152Z,93.8
2023-02-17T07:00:02.662Z,94.96
2023-02-17T07:05:03.328Z,94.61
2023-02-17T07:10:02.991Z,93.93
2023-02-17T07:15:03.253Z,93.39
2023-02-17T07:20:03.085Z,93.42
2023-02-17T07:25:02.908Z,93.76
2023-02-17T07:30:02.846Z,93.37
2023-02-17T07:35:03.476Z,94.29
2023-02-17T07:40:03.156Z,92.8
2023-02-17T07:45:03.356Z,93.96
2023-02-17T07:50:03.279Z,92.59
2023-02-17T07:55:03.823Z,94.11
2023-02-17T08:00:03.450Z,93.66
2023-02-17T08:05:02.850Z,93.71
2023-02-17T08:10:02.743Z,93.24
2023-02-17T08:15:03.428Z,92.09
2023-02-17T08:20:09.587Z,92.73
2023-02-17T08:25:03.385Z,93.37
2023-02-17T08:30:03.656Z,91.88
2023-02-17T08:35:03.154Z,92.01
2023-02-17T08:40:02.935Z,91.53
2023-02-17T08:45:03.358Z,91.61
2023-02-17T08:50:02.962Z,92.34
2023-02-17T08:55:03.614Z,92.64
2023-02-17T09:00:06.735Z,92.45
2023-02-17T09:05:03.050Z,93.42
2023-02-17T09:10:03.396Z,93.95
2023-02-17T09:15:03.045Z,94.31
2023-02-17T09:20:02.968Z,95.19
2023-02-17T09:25:03.441Z,95.06
2023-02-17T09:30:03.546Z,95.64
2023-02-17T09:35:02.635Z,95.73
2023-02-17T09:40:02.823Z,96.36
2023-02-17T09:45:03.610Z,95.02
2023-02-17T09:50:03.396Z,94.11
2023-02-17T09:55:03.029Z,93.94
2023-02-17T10:00:02.880Z,93.29
2023-02-17T10:05:03.584Z,92.84
2023-02-17T10:10:03.150Z,91.84
2023-02-17T10:15:02.908Z,90.89
2023-02-17T10:20:02.690Z,90.36
2023-02-17T10:25:03.444Z,90.65
2023-02-17T10:30:03.545Z,89.7
2023-02-17T10:35:02.851Z,88.43
2023-02-17T10:40:02.572Z,87.35
2023-02-17T10:45:03.582Z,87.27
2023-02-17T10:50:03.012Z,88.16
2023-02-17T10:55:23.577Z,87.39
2023-02-17T11:00:02.671Z,86.25
2023-02-17T11:05:03.323Z,85.08
2023-02-17T11:10:02.551Z,85.46
2023-02-17T11:15:03.565Z,84.07
2023-02-17T11:20:03.392Z,86.46
2023-02-17T11:25:02.789Z,85.11
2023-02-17T11:30:02.755Z,85.27
2023-02-17T11:35:03.232Z,85.71
2023-02-17T11:40:02.969Z,85.37
2023-02-17T11:45:02.811Z,84.79
2023-02-17T11:50:03.468Z,85.26
2023-02-17T11:55:03.429Z,84.12
2023-02-17T12:00:02.682Z,83.32
2023-02-17T12:05:02.767Z,84.5
2023-02-17T12:10:02.828Z,82.6
2023-02-17T12:15:03.700Z,82.33
2023-02-17T12:20:03.245Z,84.42
2023-02-17T12:25:02.954Z,84.52
2023-02-17T12:30:02.832Z,84.31
2023-02-17T12:35:03.296Z,85.19
2023-02-17T12:40:03.055Z,84.27
2023-02-17T12:45:03.021Z,83.52
2023-02-17T12:50:03.473Z,82.96
2023-02-17T12:55:03.691Z,84.42
2023-02-17T13:00:02.933Z,82.43
2023-02-17T13:10:02.911Z,83.5
2023-02-17T13:15:02.575Z,80.61
2023-02-17T13:20:02.778Z,82.77
2023-02-17T13:25:03.711Z,82.67
2023-02-17T13:30:02.934Z,81.63
2023-02-17T13:35:02.930Z,81.77
2023-02-17T13:40:03.053Z,81.1
2023-02-17T13:45:03.657Z,80.23
2023-02-17T13:50:03.421Z,80.09
2023-02-17T13:55:03.992Z,80.33
2023-02-17T14:00:03.240Z,78.52
2023-02-17T14:05:03.383Z,78.91
2023-02-17T14:10:02.980Z,79.12
2023-02-17T14:15:02.749Z,78.27
2023-02-17T14:20:03.502Z,79.46
2023-02-17T14:25:03.095Z,79.54
2023-02-17T14:30:06.438Z,80.8
2023-02-17T14:35:03.235Z,79.75
2023-02-17T14:40:02.905Z,80.15
2023-02-17T14:45:02.607Z,77.55
2023-02-17T14:50:03.344Z,79.4
2023-02-17T14:55:03.158Z,80.75
2023-02-17T15:00:03.151Z,82.55
2023-02-17T15:05:02.928Z,81.8
2023-02-17T15:10:02.671Z,82.2
2023-02-17T15:15:03.488Z,81.88
2023-02-17T15:20:03.437Z,81.82
2023-02-17T15:25:03.118Z,83.01
2023-02-17T15:30:02.988Z,83.74
2023-02-17T15:35:03.010Z,84.31
2023-02-17T15:40:02.637Z,86.63
2023-02-17T15:45:03.405Z,88.29
2023-02-17T15:50:03.119Z,93.11
2023-02-17T15:55:03.384Z,98.55
2023-02-17T16:00:02.939Z,100
2023-02-17T16:05:02.676Z,100
2023-02-17T16:10:03.378Z,100
2023-02-17T16:15:03.263Z,100
2023-02-17T16:20:02.962Z,100
2023-02-17T16:25:02.697Z,100
2023-02-17T16:30:03.871Z,100
2023-02-17T16:35:03.098Z,100
2023-02-17T16:40:03.217Z,100
2023-02-17T16:45:02.811Z,100
2023-02-17T16:50:02.804Z,97.43
2023-02-17T16:55:03.595Z,96.37
2023-02-17T17:00:03.399Z,96.59
2023-02-17T17:05:03.041Z,97.28
2023-02-17T17:10:17.525Z,95.83
2023-02-17T17:15:03.336Z,94.46
2023-02-17T17:20:03.295Z,91.6
2023-02-17T17:25:03.115Z,88.71
2023-02-17T17:30:02.935Z,88.82
2023-02-17T17:35:02.696Z,89.5
2023-02-17T17:40:02.587Z,90.12
2023-02-17T17:45:03.436Z,91.26
2023-02-17T17:50:03.027Z,90.16
2023-02-17T17:55:03.466Z,87.3
2023-02-17T18:00:02.968Z,87.62
2023-02-17T18:05:02.915Z,87.77
2023-02-17T18:10:02.809Z,86.44
2023-02-17T18:15:02.779Z,85.42
2023-02-17T18:20:02.558Z,86.04
2023-02-17T18:25:03.379Z,84.23
2023-02-17T18:30:03.393Z,85.5
2023-02-17T18:35:03.097Z,84.14
2023-02-17T18:40:02.835Z,83.34
2023-02-17T18:45:02.667Z,82.12
2023-02-17T18:50:02.244Z,81.13
2023-02-17T18:55:03.691Z,81.35
2023-02-17T19:00:03.210Z,82.87
2023-02-17T19:05:02.679Z,84.24
2023-02-17T19:10:03.406Z,82.23
2023-02-17T19:15:03.251Z,81.49
2023-02-17T19:20:02.983Z,80.57
2023-02-17T19:25:02.791Z,80.35
2023-02-17T19:30:03.101Z,81.89
2023-02-17T19:35:03.284Z,79.54
2023-02-17T19:40:03.347Z,80.75
2023-02-17T19:45:02.539Z,86.55
2023-02-17T19:50:03.320Z,91.34
2023-02-17T19:55:03.196Z,90.97
2023-02-17T20:00:02.789Z,88.77
2023-02-17T20:05:03.409Z,89.49
2023-02-17T20:10:03.170Z,88.97
2023-02-17T20:15:03.077Z,88.31
2023-02-17T20:20:02.948Z,88.87
2023-02-17T20:25:03.286Z,89.28
2023-02-17T20:30:03.349Z,88.87
2023-02-17T20:35:03.262Z,88.48
2023-02-17T20:40:03.136Z,89.15
2023-02-17T20:45:03.131Z,89.88
2023-02-17T20:50:03.347Z,88.95
2023-02-17T20:55:04.058Z,88.17
2023-02-17T21:00:03.264Z,86.75
2023-02-17T21:05:02.954Z,86.63
2023-02-17T21:10:02.596Z,88.13
2023-02-17T21:15:03.292Z,87.93
2023-02-17T21:20:03.007Z,86.37
2023-02-17T21:25:03.026Z,82.99
2023-02-17T21:30:02.933Z,81.16
2023-02-17T21:35:03.465Z,75.75
2023-02-17T21:40:03.209Z,71.09
2023-02-17T21:45:02.617Z,72.74
2023-02-17T21:50:02.903Z,73.08
2023-02-17T21:55:02.715Z,74.45
2023-02-17T22:00:03.547Z,75.99
2023-02-17T22:05:03.234Z,76.95
2023-02-17T22:10:02.909Z,78.4
2023-02-17T22:15:02.694Z,71.24
2023-02-17T22:20:03.456Z,69.61
2023-02-17T22:25:03.255Z,69.95
2023-02-17T22:30:03.238Z,71.59
2023-02-17T22:35:02.952Z,71.1
2023-02-17T22:40:02.854Z,72.2
2023-02-17T22:45:02.936Z,74.23
2023-02-17T22:50:02.912Z,73.05
2023-02-17T22:55:03.670Z,76.19
2023-02-17T23:00:03.066Z,77.83
2023-02-17T23:05:03.000Z,73.48
2023-02-17T23:10:03.237Z,76.45
2023-02-17T23:15:03.108Z,78.1
2023-02-17T23:20:03.229Z,79.43
2023-02-17T23:25:02.525Z,80
2023-02-17T23:30:03.761Z,79.3
2023-02-17T23:35:03.306Z,79.34
2023-02-17T23:40:03.063Z,77.87
2023-02-17T23:45:02.929Z,79.33
2023-02-17T23:50:02.742Z,77.41
2023-02-17T23:55:03.621Z,77.93
